sensor_id;sensor_type;location;lat;lon;timestamp;pressure;altitude;pressure_sealevel;temperature
45976;BMP280;31696;42.668;23.322;2023-07-31T00:00:50;94360.34;;;22.98
45976;BMP280;31696;42.668;23.322;2023-07-31T00:02:51;94358.06;;;23.10
45976;BMP280;31696;42.668;23.322;2023-07-31T00:04:52;94362.19;;;22.91
45976;BMP280;31696;42.668;23.322;2023-07-31T00:06:52;94360.72;;;23.10
45976;BMP280;31696;42.668;23.322;2023-07-31T00:08:53;94367.34;;;22.87
45976;BMP280;31696;42.668;23.322;2023-07-31T00:10:53;94367.84;;;22.82
45976;BMP280;31696;42.668;23.322;2023-07-31T00:12:54;94364.97;;;22.74
45976;BMP280;31696;42.668;23.322;2023-07-31T00:14:54;94364.75;;;22.89
45976;BMP280;31696;42.668;23.322;2023-07-31T00:16:54;94365.50;;;23.15
45976;BMP280;31696;42.668;23.322;2023-07-31T00:18:55;94372.19;;;22.95
45976;BMP280;31696;42.668;23.322;2023-07-31T00:20:55;94372.56;;;23.07
45976;BMP280;31696;42.668;23.322;2023-07-31T00:22:55;94364.19;;;22.93
45976;BMP280;31696;42.668;23.322;2023-07-31T00:24:56;94365.50;;;23.15
45976;BMP280;31696;42.668;23.322;2023-07-31T00:26:56;94358.22;;;22.92
45976;BMP280;31696;42.668;23.322;2023-07-31T00:28:57;94359.59;;;23.17
45976;BMP280;31696;42.668;23.322;2023-07-31T00:30:57;94363.84;;;22.81
45976;BMP280;31696;42.668;23.322;2023-07-31T00:33:00;94352.53;;;22.78
45976;BMP280;31696;42.668;23.322;2023-07-31T00:35:00;94345.59;;;22.67
45976;BMP280;31696;42.668;23.322;2023-07-31T00:37:00;94338.44;;;22.72
45976;BMP280;31696;42.668;23.322;2023-07-31T00:39:01;94335.78;;;22.72
45976;BMP280;31696;42.668;23.322;2023-07-31T00:41:01;94341.31;;;22.80
45976;BMP280;31696;42.668;23.322;2023-07-31T00:43:02;94336.00;;;22.34
45976;BMP280;31696;42.668;23.322;2023-07-31T00:45:03;94339.97;;;22.33
45976;BMP280;31696;42.668;23.322;2023-07-31T00:47:04;94361.34;;;22.41
45976;BMP280;31696;42.668;23.322;2023-07-31T00:49:05;94337.50;;;22.39
45976;BMP280;31696;42.668;23.322;2023-07-31T00:51:06;94348.88;;;22.44
45976;BMP280;31696;42.668;23.322;2023-07-31T00:53:08;94329.69;;;22.43
45976;BMP280;31696;42.668;23.322;2023-07-31T00:55:09;94334.13;;;22.37
45976;BMP280;31696;42.668;23.322;2023-07-31T00:57:09;94338.41;;;22.48
45976;BMP280;31696;42.668;23.322;2023-07-31T00:59:10;94345.25;;;22.33
45976;BMP280;31696;42.668;23.322;2023-07-31T01:01:10;94328.19;;;22.38
45976;BMP280;31696;42.668;23.322;2023-07-31T01:03:10;94328.75;;;22.35
45976;BMP280;31696;42.668;23.322;2023-07-31T01:05:12;94328.19;;;22.38
45976;BMP280;31696;42.668;23.322;2023-07-31T01:11:29;94333.06;;;22.24
45976;BMP280;31696;42.668;23.322;2023-07-31T01:13:30;94332.78;;;22.14
45976;BMP280;31696;42.668;23.322;2023-07-31T01:15:30;94328.44;;;22.46
45976;BMP280;31696;42.668;23.322;2023-07-31T01:17:31;94321.00;;;22.41
45976;BMP280;31696;42.668;23.322;2023-07-31T01:19:31;94318.88;;;22.35
45976;BMP280;31696;42.668;23.322;2023-07-31T01:23:41;94329.53;;;21.96
45976;BMP280;31696;42.668;23.322;2023-07-31T01:27:59;94320.41;;;21.99
45976;BMP280;31696;42.668;23.322;2023-07-31T01:30:03;94340.03;;;22.14
45976;BMP280;31696;42.668;23.322;2023-07-31T01:32:10;94315.78;;;22.21
45976;BMP280;31696;42.668;23.322;2023-07-31T01:34:11;94318.53;;;22.04
45976;BMP280;31696;42.668;23.322;2023-07-31T01:36:12;94315.41;;;22.09
45976;BMP280;31696;42.668;23.322;2023-07-31T01:38:13;94314.06;;;22.08
45976;BMP280;31696;42.668;23.322;2023-07-31T01:40:15;94317.03;;;22.18
45976;BMP280;31696;42.668;23.322;2023-07-31T01:42:16;94327.53;;;22.16
45976;BMP280;31696;42.668;23.322;2023-07-31T01:44:17;94319.22;;;22.04
45976;BMP280;31696;42.668;23.322;2023-07-31T01:46:17;94314.19;;;22.12
45976;BMP280;31696;42.668;23.322;2023-07-31T01:48:17;94316.75;;;22.10
45976;BMP280;31696;42.668;23.322;2023-07-31T01:50:18;94305.56;;;21.90
45976;BMP280;31696;42.668;23.322;2023-07-31T01:52:19;94317.03;;;22.18
45976;BMP280;31696;42.668;23.322;2023-07-31T01:54:19;94312.97;;;21.96
45976;BMP280;31696;42.668;23.322;2023-07-31T01:56:19;94323.38;;;22.11
45976;BMP280;31696;42.668;23.322;2023-07-31T01:58:20;94323.53;;;22.15
45976;BMP280;31696;42.668;23.322;2023-07-31T02:00:20;94333.31;;;22.11
45976;BMP280;31696;42.668;23.322;2023-07-31T02:02:21;94323.94;;;22.08
45976;BMP280;31696;42.668;23.322;2023-07-31T02:04:23;94328.72;;;21.92
45976;BMP280;31696;42.668;23.322;2023-07-31T02:06:23;94321.91;;;21.85
45976;BMP280;31696;42.668;23.322;2023-07-31T02:08:23;94336.91;;;22.00
45976;BMP280;31696;42.668;23.322;2023-07-31T02:10:24;94328.84;;;21.74
45976;BMP280;31696;42.668;23.322;2023-07-31T02:12:25;94323.69;;;22.00
45976;BMP280;31696;42.668;23.322;2023-07-31T02:14:25;94338.09;;;21.75
45976;BMP280;31696;42.668;23.322;2023-07-31T02:16:26;94334.94;;;22.00
45976;BMP280;31696;42.668;23.322;2023-07-31T02:18:26;94341.53;;;21.99
45976;BMP280;31696;42.668;23.322;2023-07-31T02:20:26;94326.91;;;22.18
45976;BMP280;31696;42.668;23.322;2023-07-31T02:22:27;94324.31;;;21.98
45976;BMP280;31696;42.668;23.322;2023-07-31T02:24:27;94329.97;;;21.89
45976;BMP280;31696;42.668;23.322;2023-07-31T02:26:28;94330.69;;;21.91
45976;BMP280;31696;42.668;23.322;2023-07-31T02:28:28;94336.19;;;21.97
45976;BMP280;31696;42.668;23.322;2023-07-31T02:30:29;94325.72;;;22.01
45976;BMP280;31696;42.668;23.322;2023-07-31T02:32:29;94324.63;;;22.08
45976;BMP280;31696;42.668;23.322;2023-07-31T02:34:30;94325.59;;;21.97
45976;BMP280;31696;42.668;23.322;2023-07-31T02:36:30;94333.66;;;22.01
45976;BMP280;31696;42.668;23.322;2023-07-31T02:38:30;94337.31;;;21.92
45976;BMP280;31696;42.668;23.322;2023-07-31T02:40:31;94329.22;;;22.08
45976;BMP280;31696;42.668;23.322;2023-07-31T02:42:31;94328.50;;;21.84
45976;BMP280;31696;42.668;23.322;2023-07-31T02:44:31;94334.28;;;22.00
45976;BMP280;31696;42.668;23.322;2023-07-31T02:46:32;94327.44;;;21.93
45976;BMP280;31696;42.668;23.322;2023-07-31T02:48:32;94349.47;;;21.99
45976;BMP280;31696;42.668;23.322;2023-07-31T02:50:33;94337.53;;;21.98
45976;BMP280;31696;42.668;23.322;2023-07-31T02:52:33;94338.94;;;22.01
45976;BMP280;31696;42.668;23.322;2023-07-31T02:54:33;94344.50;;;22.09
45976;BMP280;31696;42.668;23.322;2023-07-31T02:56:34;94345.44;;;22.18
45976;BMP280;31696;42.668;23.322;2023-07-31T02:58:34;94355.13;;;22.11
45976;BMP280;31696;42.668;23.322;2023-07-31T03:00:34;94354.34;;;22.07
45976;BMP280;31696;42.668;23.322;2023-07-31T03:02:35;94359.22;;;22.14
45976;BMP280;31696;42.668;23.322;2023-07-31T03:04:36;94358.94;;;22.06
45976;BMP280;31696;42.668;23.322;2023-07-31T03:06:36;94359.22;;;22.14
45976;BMP280;31696;42.668;23.322;2023-07-31T03:08:36;94360.56;;;22.15
45976;BMP280;31696;42.668;23.322;2023-07-31T03:10:36;94363.19;;;22.15
45976;BMP280;31696;42.668;23.322;2023-07-31T03:12:38;94356.25;;;22.26
45976;BMP280;31696;42.668;23.322;2023-07-31T03:14:39;94364.53;;;22.16
45976;BMP280;31696;42.668;23.322;2023-07-31T03:16:39;94357.72;;;22.09
45976;BMP280;31696;42.668;23.322;2023-07-31T03:18:39;94360.97;;;22.08
45976;BMP280;31696;42.668;23.322;2023-07-31T03:20:44;94358.34;;;22.29
45976;BMP280;31696;42.668;23.322;2023-07-31T03:22:44;94363.66;;;22.29
45976;BMP280;31696;42.668;23.322;2023-07-31T03:24:45;94369.75;;;22.34
45976;BMP280;31696;42.668;23.322;2023-07-31T03:26:45;94368.28;;;22.31
45976;BMP280;31696;42.668;23.322;2023-07-31T03:28:46;94365.56;;;22.07
45976;BMP280;31696;42.668;23.322;2023-07-31T03:30:46;94364.06;;;22.22
45976;BMP280;31696;42.668;23.322;2023-07-31T03:32:47;94368.28;;;22.09
45976;BMP280;31696;42.668;23.322;2023-07-31T03:34:47;94368.53;;;22.17
45976;BMP280;31696;42.668;23.322;2023-07-31T03:36:47;94364.69;;;22.20
45976;BMP280;31696;42.668;23.322;2023-07-31T03:38:48;94367.63;;;22.30
45976;BMP280;31696;42.668;23.322;2023-07-31T03:40:48;94377.28;;;22.43
45976;BMP280;31696;42.668;23.322;2023-07-31T03:42:49;94384.72;;;22.27
45976;BMP280;31696;42.668;23.322;2023-07-31T03:44:50;94372.19;;;22.28
45976;BMP280;31696;42.668;23.322;2023-07-31T03:46:51;94377.00;;;22.33
45976;BMP280;31696;42.668;23.322;2023-07-31T03:48:52;94387.47;;;22.31
45976;BMP280;31696;42.668;23.322;2023-07-31T03:50:53;94380.75;;;22.48
45976;BMP280;31696;42.668;23.322;2023-07-31T03:52:53;94383.44;;;22.28
45976;BMP280;31696;42.668;23.322;2023-07-31T03:54:54;94386.09;;;22.28
45976;BMP280;31696;42.668;23.322;2023-07-31T03:56:54;94381.09;;;22.38
45976;BMP280;31696;42.668;23.322;2023-07-31T03:58:54;94386.00;;;22.26
45976;BMP280;31696;42.668;23.322;2023-07-31T04:00:55;94390.13;;;22.31
45976;BMP280;31696;42.668;23.322;2023-07-31T04:02:55;94395.63;;;22.37
45976;BMP280;31696;42.668;23.322;2023-07-31T04:04:55;94397.56;;;22.15
45976;BMP280;31696;42.668;23.322;2023-07-31T04:06:56;94400.72;;;22.31
45976;BMP280;31696;42.668;23.322;2023-07-31T04:08:56;94392.47;;;22.43
45976;BMP280;31696;42.668;23.322;2023-07-31T04:10:56;94420.31;;;22.44
45976;BMP280;31696;42.668;23.322;2023-07-31T04:12:57;94392.19;;;22.33
45976;BMP280;31696;42.668;23.322;2023-07-31T04:14:57;94394.56;;;22.46
45976;BMP280;31696;42.668;23.322;2023-07-31T04:16:57;94389.53;;;22.33
45976;BMP280;31696;42.668;23.322;2023-07-31T04:18:58;94397.22;;;22.46
45976;BMP280;31696;42.668;23.322;2023-07-31T04:20:58;94406.84;;;22.16
45976;BMP280;31696;42.668;23.322;2023-07-31T04:22:59;94407.47;;;22.15
45976;BMP280;31696;42.668;23.322;2023-07-31T04:24:59;94417.56;;;22.42
45976;BMP280;31696;42.668;23.322;2023-07-31T04:26:59;94401.28;;;22.49
45976;BMP280;31696;42.668;23.322;2023-07-31T04:29:00;94394.53;;;22.44
45976;BMP280;31696;42.668;23.322;2023-07-31T04:31:00;94396.66;;;22.28
45976;BMP280;31696;42.668;23.322;2023-07-31T04:33:00;94412.59;;;22.30
45976;BMP280;31696;42.668;23.322;2023-07-31T04:35:01;94400.91;;;22.37
45976;BMP280;31696;42.668;23.322;2023-07-31T04:37:01;94407.03;;;22.22
45976;BMP280;31696;42.668;23.322;2023-07-31T04:39:02;94405.56;;;22.17
45976;BMP280;31696;42.668;23.322;2023-07-31T04:41:02;94406.16;;;22.16
45976;BMP280;31696;42.668;23.322;2023-07-31T04:43:03;94401.81;;;22.24
45976;BMP280;31696;42.668;23.322;2023-07-31T04:45:05;94402.94;;;22.39
45976;BMP280;31696;42.668;23.322;2023-07-31T04:47:05;94404.31;;;22.40
45976;BMP280;31696;42.668;23.322;2023-07-31T04:49:06;94397.34;;;22.50
45976;BMP280;31696;42.668;23.322;2023-07-31T04:51:06;94403.31;;;22.51
45976;BMP280;31696;42.668;23.322;2023-07-31T04:53:06;94392.91;;;22.35
45976;BMP280;31696;42.668;23.322;2023-07-31T04:55:07;94388.19;;;22.53
45976;BMP280;31696;42.668;23.322;2023-07-31T04:57:07;94397.66;;;22.61
45976;BMP280;31696;42.668;23.322;2023-07-31T04:59:08;94395.94;;;22.47
45976;BMP280;31696;42.668;23.322;2023-07-31T05:01:08;94397.47;;;22.33
45976;BMP280;31696;42.668;23.322;2023-07-31T05:03:08;94390.91;;;22.34
45976;BMP280;31696;42.668;23.322;2023-07-31T05:05:10;94392.91;;;22.57
45976;BMP280;31696;42.668;23.322;2023-07-31T05:07:11;94399.53;;;22.56
45976;BMP280;31696;42.668;23.322;2023-07-31T05:09:11;94398.19;;;22.57
45976;BMP280;31696;42.668;23.322;2023-07-31T05:11:12;94396.97;;;22.82
45976;BMP280;31696;42.668;23.322;2023-07-31T05:13:12;94396.22;;;23.01
45976;BMP280;31696;42.668;23.322;2023-07-31T05:15:13;94403.19;;;22.90
45976;BMP280;31696;42.668;23.322;2023-07-31T05:17:13;94406.31;;;22.85
45976;BMP280;31696;42.668;23.322;2023-07-31T05:19:14;94392.16;;;23.21
45976;BMP280;31696;42.668;23.322;2023-07-31T05:21:14;94393.84;;;23.34
45976;BMP280;31696;42.668;23.322;2023-07-31T05:23:14;94389.66;;;23.51
45976;BMP280;31696;42.668;23.322;2023-07-31T05:25:15;94393.31;;;23.40
45976;BMP280;31696;42.668;23.322;2023-07-31T05:27:15;94399.81;;;23.61
45976;BMP280;31696;42.668;23.322;2023-07-31T05:29:18;94395.06;;;23.55
45976;BMP280;31696;42.668;23.322;2023-07-31T05:31:18;94403.41;;;23.46
45976;BMP280;31696;42.668;23.322;2023-07-31T05:33:19;94388.06;;;23.42
45976;BMP280;31696;42.668;23.322;2023-07-31T05:35:19;94400.59;;;23.63
45976;BMP280;31696;42.668;23.322;2023-07-31T05:37:19;94404.38;;;23.56
45976;BMP280;31696;42.668;23.322;2023-07-31T05:39:20;94399.91;;;23.63
45976;BMP280;31696;42.668;23.322;2023-07-31T05:41:20;94387.41;;;23.67
45976;BMP280;31696;42.668;23.322;2023-07-31T05:43:21;94393.66;;;23.78
45976;BMP280;31696;42.668;23.322;2023-07-31T05:45:21;94385.06;;;23.79
45976;BMP280;31696;42.668;23.322;2023-07-31T05:47:21;94395.34;;;23.67
45976;BMP280;31696;42.668;23.322;2023-07-31T05:49:22;94391.25;;;24.15
45976;BMP280;31696;42.668;23.322;2023-07-31T05:51:22;94399.34;;;24.22
45976;BMP280;31696;42.668;23.322;2023-07-31T05:53:22;94388.38;;;24.05
45976;BMP280;31696;42.668;23.322;2023-07-31T05:55:23;94393.94;;;23.90
45976;BMP280;31696;42.668;23.322;2023-07-31T05:57:26;94397.28;;;23.90
45976;BMP280;31696;42.668;23.322;2023-07-31T05:59:27;94396.81;;;23.72
45976;BMP280;31696;42.668;23.322;2023-07-31T06:01:27;94401.34;;;23.68
45976;BMP280;31696;42.668;23.322;2023-07-31T06:03:28;94401.28;;;23.40
45976;BMP280;31696;42.668;23.322;2023-07-31T06:05:28;94406.34;;;23.32
45976;BMP280;31696;42.668;23.322;2023-07-31T06:07:30;94420.16;;;23.52
45976;BMP280;31696;42.668;23.322;2023-07-31T06:09:30;94404.06;;;24.53
45976;BMP280;31696;42.668;23.322;2023-07-31T06:11:31;94412.41;;;24.71
45976;BMP280;31696;42.668;23.322;2023-07-31T06:13:31;94402.91;;;25.23
45976;BMP280;31696;42.668;23.322;2023-07-31T06:15:32;94411.47;;;25.93
45976;BMP280;31696;42.668;23.322;2023-07-31T06:17:32;94395.28;;;25.79
45976;BMP280;31696;42.668;23.322;2023-07-31T06:19:33;94412.88;;;25.98
45976;BMP280;31696;42.668;23.322;2023-07-31T06:21:33;94405.84;;;26.60
45976;BMP280;31696;42.668;23.322;2023-07-31T06:23:33;94396.97;;;26.46
45976;BMP280;31696;42.668;23.322;2023-07-31T06:25:34;94397.06;;;25.66
45976;BMP280;31696;42.668;23.322;2023-07-31T06:27:34;94403.38;;;25.49
45976;BMP280;31696;42.668;23.322;2023-07-31T06:29:34;94400.72;;;25.49
45976;BMP280;31696;42.668;23.322;2023-07-31T06:31:35;94404.19;;;25.56
45976;BMP280;31696;42.668;23.322;2023-07-31T06:33:35;94403.56;;;25.97
45976;BMP280;31696;42.668;23.322;2023-07-31T06:35:36;94403.44;;;25.51
45976;BMP280;31696;42.668;23.322;2023-07-31T06:37:36;94402.00;;;25.84
45976;BMP280;31696;42.668;23.322;2023-07-31T06:39:37;94409.34;;;26.75
45976;BMP280;31696;42.668;23.322;2023-07-31T06:41:38;94411.09;;;27.04
45976;BMP280;31696;42.668;23.322;2023-07-31T06:43:40;94404.19;;;27.43
45976;BMP280;31696;42.668;23.322;2023-07-31T06:45:40;94406.41;;;27.65
45976;BMP280;31696;42.668;23.322;2023-07-31T06:47:41;94405.09;;;27.68
45976;BMP280;31696;42.668;23.322;2023-07-31T06:49:41;94400.44;;;27.68
45976;BMP280;31696;42.668;23.322;2023-07-31T06:51:42;94412.94;;;27.53
45976;BMP280;31696;42.668;23.322;2023-07-31T06:53:42;94407.63;;;26.94
45976;BMP280;31696;42.668;23.322;2023-07-31T06:55:45;94413.78;;;27.70
45976;BMP280;31696;42.668;23.322;2023-07-31T06:57:46;94411.22;;;27.14
45976;BMP280;31696;42.668;23.322;2023-07-31T06:59:46;94408.88;;;26.39
45976;BMP280;31696;42.668;23.322;2023-07-31T07:01:46;94418.63;;;26.70
45976;BMP280;31696;42.668;23.322;2023-07-31T07:03:47;94429.34;;;26.74
45976;BMP280;31696;42.668;23.322;2023-07-31T07:05:47;94403.59;;;27.50
45976;BMP280;31696;42.668;23.322;2023-07-31T07:07:49;94409.19;;;26.61
45976;BMP280;31696;42.668;23.322;2023-07-31T07:09:50;94421.50;;;27.44
45976;BMP280;31696;42.668;23.322;2023-07-31T07:11:50;94412.31;;;28.35
45976;BMP280;31696;42.668;23.322;2023-07-31T07:13:51;94431.38;;;29.07
45976;BMP280;31696;42.668;23.322;2023-07-31T07:15:51;94423.50;;;29.53
45976;BMP280;31696;42.668;23.322;2023-07-31T07:17:51;94427.50;;;29.48
45976;BMP280;31696;42.668;23.322;2023-07-31T07:19:52;94426.84;;;29.96
45976;BMP280;31696;42.668;23.322;2023-07-31T07:21:52;94411.47;;;29.93
45976;BMP280;31696;42.668;23.322;2023-07-31T07:23:53;94412.16;;;29.81
45976;BMP280;31696;42.668;23.322;2023-07-31T07:25:53;94408.81;;;29.99
45976;BMP280;31696;42.668;23.322;2023-07-31T07:27:55;94403.44;;;29.61
45976;BMP280;31696;42.668;23.322;2023-07-31T07:29:55;94406.13;;;30.01
45976;BMP280;31696;42.668;23.322;2023-07-31T07:31:55;94407.44;;;29.68
45976;BMP280;31696;42.668;23.322;2023-07-31T07:33:56;94398.09;;;29.61
45976;BMP280;31696;42.668;23.322;2023-07-31T07:35:59;94394.06;;;29.51
45976;BMP280;31696;42.668;23.322;2023-07-31T07:38:00;94406.13;;;29.77
45976;BMP280;31696;42.668;23.322;2023-07-31T07:40:01;94398.00;;;29.20
45976;BMP280;31696;42.668;23.322;2023-07-31T07:42:01;94405.44;;;29.48
45976;BMP280;31696;42.668;23.322;2023-07-31T07:44:01;94414.16;;;29.54
45976;BMP280;31696;42.668;23.322;2023-07-31T07:46:02;94404.78;;;29.64
45976;BMP280;31696;42.668;23.322;2023-07-31T07:48:02;94408.81;;;29.67
45976;BMP280;31696;42.668;23.322;2023-07-31T07:50:03;94428.88;;;29.84
45976;BMP280;31696;42.668;23.322;2023-07-31T07:52:04;94416.72;;;29.16
45976;BMP280;31696;42.668;23.322;2023-07-31T07:54:04;94414.66;;;29.07
45976;BMP280;31696;42.668;23.322;2023-07-31T07:56:04;94425.84;;;28.67
45976;BMP280;31696;42.668;23.322;2023-07-31T07:58:05;94410.69;;;29.12
45976;BMP280;31696;42.668;23.322;2023-07-31T08:00:05;94405.97;;;29.02
45976;BMP280;31696;42.668;23.322;2023-07-31T08:02:14;94410.72;;;29.28
45976;BMP280;31696;42.668;23.322;2023-07-31T08:04:14;94414.06;;;29.26
45976;BMP280;31696;42.668;23.322;2023-07-31T08:06:15;94414.09;;;29.50
45976;BMP280;31696;42.668;23.322;2023-07-31T08:08:15;94422.16;;;29.91
45976;BMP280;31696;42.668;23.322;2023-07-31T08:10:19;94413.50;;;29.92
45976;BMP280;31696;42.668;23.322;2023-07-31T08:12:19;94409.94;;;28.91
45976;BMP280;31696;42.668;23.322;2023-07-31T08:14:19;94407.38;;;29.27
45976;BMP280;31696;42.668;23.322;2023-07-31T08:16:20;94406.63;;;29.05
45976;BMP280;31696;42.668;23.322;2023-07-31T08:18:20;94401.97;;;29.05
45976;BMP280;31696;42.668;23.322;2023-07-31T08:20:21;94420.03;;;29.11
45976;BMP280;31696;42.668;23.322;2023-07-31T08:22:21;94414.00;;;29.00
45976;BMP280;31696;42.668;23.322;2023-07-31T08:24:22;94413.31;;;29.02
45976;BMP280;31696;42.668;23.322;2023-07-31T08:26:22;94408.78;;;29.48
45976;BMP280;31696;42.668;23.322;2023-07-31T08:28:22;94410.81;;;29.80
45976;BMP280;31696;42.668;23.322;2023-07-31T08:30:23;94408.75;;;29.50
45976;BMP280;31696;42.668;23.322;2023-07-31T08:32:23;94409.97;;;28.93
45976;BMP280;31696;42.668;23.322;2023-07-31T08:34:23;94412.09;;;29.39
45976;BMP280;31696;42.668;23.322;2023-07-31T08:36:24;94395.38;;;29.28
45976;BMP280;31696;42.668;23.322;2023-07-31T08:38:25;94407.47;;;29.74
45976;BMP280;31696;42.668;23.322;2023-07-31T08:40:26;94414.16;;;29.97
45976;BMP280;31696;42.668;23.322;2023-07-31T08:42:27;94406.78;;;29.77
45976;BMP280;31696;42.668;23.322;2023-07-31T08:44:27;94410.13;;;29.60
45976;BMP280;31696;42.668;23.322;2023-07-31T08:46:28;94407.44;;;29.66
45976;BMP280;31696;42.668;23.322;2023-07-31T08:48:28;94408.78;;;29.71
45976;BMP280;31696;42.668;23.322;2023-07-31T08:50:29;94448.88;;;29.50
45976;BMP280;31696;42.668;23.322;2023-07-31T08:52:29;94401.25;;;28.93
45976;BMP280;31696;42.668;23.322;2023-07-31T08:54:30;94409.19;;;28.73
45976;BMP280;31696;42.668;23.322;2023-07-31T08:56:32;94412.19;;;28.17
45976;BMP280;31696;42.668;23.322;2023-07-31T08:58:33;94397.91;;;27.84
45976;BMP280;31696;42.668;23.322;2023-07-31T09:00:35;94403.81;;;27.75
45976;BMP280;31696;42.668;23.322;2023-07-31T09:03:09;94409.13;;;27.71
45976;BMP280;31696;42.668;23.322;2023-07-31T09:05:02;94410.28;;;28.31
45976;BMP280;31696;42.668;23.322;2023-07-31T09:07:03;94409.72;;;28.51
45976;BMP280;31696;42.668;23.322;2023-07-31T09:09:04;94406.03;;;29.20
45976;BMP280;31696;42.668;23.322;2023-07-31T09:11:04;94402.06;;;29.23
45976;BMP280;31696;42.668;23.322;2023-07-31T09:13:05;94400.06;;;29.40
45976;BMP280;31696;42.668;23.322;2023-07-31T09:15:05;94402.06;;;29.23
45976;BMP280;31696;42.668;23.322;2023-07-31T09:17:06;94396.56;;;28.85
45976;BMP280;31696;42.668;23.322;2023-07-31T09:19:06;94401.78;;;28.61
45976;BMP280;31696;42.668;23.322;2023-07-31T09:21:07;94391.34;;;27.99
45976;BMP280;31696;42.668;23.322;2023-07-31T09:23:12;94392.34;;;28.48
45976;BMP280;31696;42.668;23.322;2023-07-31T09:25:19;94379.44;;;28.14
45976;BMP280;31696;42.668;23.322;2023-07-31T09:27:20;94392.34;;;28.46
45976;BMP280;31696;42.668;23.322;2023-07-31T09:29:20;94387.56;;;28.26
45976;BMP280;31696;42.668;23.322;2023-07-31T09:33:55;94377.38;;;28.03
45976;BMP280;31696;42.668;23.322;2023-07-31T09:35:58;94382.63;;;27.91
45976;BMP280;31696;42.668;23.322;2023-07-31T09:38:09;94379.97;;;27.97
45976;BMP280;31696;42.668;23.322;2023-07-31T09:40:09;94378.84;;;28.24
45976;BMP280;31696;42.668;23.322;2023-07-31T09:42:25;94374.97;;;28.45
45976;BMP280;31696;42.668;23.322;2023-07-31T09:44:37;94371.09;;;28.74
45976;BMP280;31696;42.668;23.322;2023-07-31T09:46:37;94369.16;;;28.85
45976;BMP280;31696;42.668;23.322;2023-07-31T09:48:38;94363.13;;;28.78
45976;BMP280;31696;42.668;23.322;2023-07-31T09:50:39;94363.13;;;28.80
45976;BMP280;31696;42.668;23.322;2023-07-31T09:52:40;94370.91;;;28.34
45976;BMP280;31696;42.668;23.322;2023-07-31T09:54:40;94368.13;;;28.14
45976;BMP280;31696;42.668;23.322;2023-07-31T09:56:47;94362.94;;;28.38
45976;BMP280;31696;42.668;23.322;2023-07-31T09:58:48;94361.78;;;28.75
45976;BMP280;31696;42.668;23.322;2023-07-31T10:00:49;94361.81;;;28.89
45976;BMP280;31696;42.668;23.322;2023-07-31T10:02:49;94359.91;;;29.08
45976;BMP280;31696;42.668;23.322;2023-07-31T10:04:50;94360.59;;;29.20
45976;BMP280;31696;42.668;23.322;2023-07-31T10:06:51;94356.53;;;28.99
45976;BMP280;31696;42.668;23.322;2023-07-31T10:08:53;94352.59;;;29.26
45976;BMP280;31696;42.668;23.322;2023-07-31T10:10:54;94365.66;;;28.46
45976;BMP280;31696;42.668;23.322;2023-07-31T10:12:57;94361.00;;;28.50
45976;BMP280;31696;42.668;23.322;2023-07-31T10:14:59;94362.97;;;28.50
45976;BMP280;31696;42.668;23.322;2023-07-31T10:16:59;94352.41;;;28.70
45976;BMP280;31696;42.668;23.322;2023-07-31T10:19:01;94353.81;;;28.85
45976;BMP280;31696;42.668;23.322;2023-07-31T10:21:01;94355.19;;;28.98
45976;BMP280;31696;42.668;23.322;2023-07-31T10:23:02;94352.50;;;29.04
45976;BMP280;31696;42.668;23.322;2023-07-31T10:25:03;94345.16;;;28.91
45976;BMP280;31696;42.668;23.322;2023-07-31T10:27:03;94347.78;;;28.89
45976;BMP280;31696;42.668;23.322;2023-07-31T10:29:04;94359.16;;;28.83
45976;BMP280;31696;42.668;23.322;2023-07-31T10:31:05;94333.75;;;28.86
45976;BMP280;31696;42.668;23.322;2023-07-31T10:33:06;94340.47;;;28.95
45976;BMP280;31696;42.668;23.322;2023-07-31T10:35:07;94343.16;;;28.93
45976;BMP280;31696;42.668;23.322;2023-07-31T10:37:25;94348.25;;;28.39
45976;BMP280;31696;42.668;23.322;2023-07-31T10:39:35;94344.16;;;28.22
45976;BMP280;31696;42.668;23.322;2023-07-31T10:41:36;94350.81;;;28.21
45976;BMP280;31696;42.668;23.322;2023-07-31T10:43:37;94341.47;;;28.16
45976;BMP280;31696;42.668;23.322;2023-07-31T10:45:39;94344.19;;;28.26
45976;BMP280;31696;42.668;23.322;2023-07-31T10:47:43;94338.84;;;28.28
45976;BMP280;31696;42.668;23.322;2023-07-31T10:49:46;94329.66;;;28.63
45976;BMP280;31696;42.668;23.322;2023-07-31T10:51:47;94335.09;;;28.79
45976;BMP280;31696;42.668;23.322;2023-07-31T10:53:47;94329.59;;;28.41
45976;BMP280;31696;42.668;23.322;2023-07-31T10:55:48;94325.59;;;28.44
45976;BMP280;31696;42.668;23.322;2023-07-31T10:57:49;94324.09;;;28.15
45976;BMP280;31696;42.668;23.322;2023-07-31T10:59:49;94326.81;;;28.25
45976;BMP280;31696;42.668;23.322;2023-07-31T11:01:50;94331.56;;;28.34
45976;BMP280;31696;42.668;23.322;2023-07-31T11:03:51;94328.34;;;28.62
45976;BMP280;31696;42.668;23.322;2023-07-31T11:05:53;94319.06;;;28.79
45976;BMP280;31696;42.668;23.322;2023-07-31T11:07:54;94315.69;;;28.75
45976;BMP280;31696;42.668;23.322;2023-07-31T11:09:56;94308.28;;;28.47
45976;BMP280;31696;42.668;23.322;2023-07-31T11:11:56;94312.13;;;28.24
45976;BMP280;31696;42.668;23.322;2023-07-31T11:13:56;94309.59;;;28.46
45976;BMP280;31696;42.668;23.322;2023-07-31T11:15:57;94310.84;;;28.33
45976;BMP280;31696;42.668;23.322;2023-07-31T11:17:57;94307.56;;;28.40
45976;BMP280;31696;42.668;23.322;2023-07-31T11:19:58;94337.59;;;28.41
45976;BMP280;31696;42.668;23.322;2023-07-31T11:21:58;94303.66;;;28.70
45976;BMP280;31696;42.668;23.322;2023-07-31T11:23:59;94312.97;;;28.56
45976;BMP280;31696;42.668;23.322;2023-07-31T11:25:59;94318.94;;;28.51
45976;BMP280;31696;42.668;23.322;2023-07-31T11:28:07;94317.69;;;28.70
45976;BMP280;31696;42.668;23.322;2023-07-31T11:30:07;94309.03;;;28.76
45976;BMP280;31696;42.668;23.322;2023-07-31T11:32:15;94307.00;;;28.70
45976;BMP280;31696;42.668;23.322;2023-07-31T11:34:16;94303.63;;;28.59
45976;BMP280;31696;42.668;23.322;2023-07-31T11:36:20;94299.56;;;28.40
45976;BMP280;31696;42.668;23.322;2023-07-31T11:38:24;94304.13;;;28.20